Time;durP1;ratioP1;P1;durP2;ratioP2;P2;SDS_P1;SDS_P2;PMS_P1;PMS_P2;Temp;Humidity;BMP_temperature;BMP_pressure;BME280_temperature;BME280_humidity;BME280_pressure;Samples;Min_cycle;Max_cycle;Signal;HPM_P1;HPM_P2
2023/05/22 00:01:11;;;;;;;4.93;3.28;;;21.20;56.80;;;;;;5066463;28;45364;-69
2023/05/22 00:03:37;;;;;;;3.00;2.80;;;21.20;56.80;;;;;;5066574;28;45442;-70
2023/05/22 00:06:08;;;;;;;4.63;2.95;;;21.20;56.90;;;;;;5066622;28;45446;-70
2023/05/22 00:08:35;;;;;;;3.08;2.83;;;21.20;56.90;;;;;;5066794;28;45344;-70
2023/05/22 00:11:04;;;;;;;2.72;2.53;;;21.10;56.80;;;;;;5066800;28;45358;-69
2023/05/22 00:13:30;;;;;;;2.72;2.53;;;21.10;56.90;;;;;;5066396;28;46492;-69
2023/05/22 00:15:57;;;;;;;3.33;2.45;;;21.10;56.80;;;;;;5066417;28;45305;-70
2023/05/22 00:18:25;;;;;;;3.00;2.80;;;21.10;57.00;;;;;;5066612;28;45256;-70
2023/05/22 00:20:52;;;;;;;3.17;2.88;;;21.10;57.00;;;;;;5066682;28;45292;-69
2023/05/22 00:23:20;;;;;;;2.83;2.63;;;21.10;57.00;;;;;;5066321;28;45277;-69
2023/05/22 00:25:48;;;;;;;3.10;2.80;;;21.10;57.00;;;;;;5066333;28;45314;-70
2023/05/22 00:28:16;;;;;;;5.05;2.95;;;21.10;57.00;;;;;;5066503;28;45334;-70
2023/05/22 00:30:43;;;;;;;3.33;2.92;;;21.00;56.90;;;;;;5066531;28;45438;-70
2023/05/22 00:33:10;;;;;;;2.75;2.55;;;21.00;57.00;;;;;;5066438;28;47433;-69
2023/05/22 00:35:37;;;;;;;3.78;2.90;;;21.00;57.00;;;;;;5066106;28;45411;-70
2023/05/22 00:38:05;;;;;;;2.72;2.53;;;21.00;57.00;;;;;;5066348;28;45308;-69
2023/05/22 00:40:31;;;;;;;3.20;2.90;;;21.00;57.10;;;;;;5066281;28;45327;-70
2023/05/22 00:42:58;;;;;;;3.17;2.88;;;21.00;57.10;;;;;;5066023;28;45596;-69
2023/05/22 00:45:26;;;;;;;2.90;2.70;;;21.00;57.10;;;;;;5065983;28;45387;-70
2023/05/22 00:47:53;;;;;;;3.42;3.10;;;21.00;57.10;;;;;;5066262;27;45278;-70
2023/05/22 00:50:20;;;;;;;3.35;3.05;;;20.90;57.00;;;;;;5066335;28;45340;-70
2023/05/22 00:52:47;;;;;;;3.15;2.95;;;20.90;57.00;;;;;;5065856;28;46232;-70
2023/05/22 00:55:14;;;;;;;2.90;2.70;;;20.90;57.00;;;;;;5065855;28;45361;-70
2023/05/22 00:57:41;;;;;;;3.25;2.95;;;20.90;57.10;;;;;;5066028;28;45445;-69
2023/05/22 01:00:10;;;;;;;3.10;2.80;;;20.90;57.20;;;;;;5066258;28;45640;-69
2023/05/22 01:02:41;;;;;;;3.97;2.70;;;20.90;57.10;;;;;;5065424;28;45715;-70
2023/05/22 01:05:10;;;;;;;3.08;2.80;;;20.90;57.20;;;;;;5065799;28;45330;-69
2023/05/22 01:07:36;;;;;;;3.45;3.15;;;20.90;57.20;;;;;;5065936;28;45394;-69
2023/05/22 01:10:04;;;;;;;2.83;2.63;;;20.90;57.20;;;;;;5065842;28;45454;-69
2023/05/22 01:12:33;;;;;;;2.92;2.72;;;20.90;57.20;;;;;;5064599;28;46444;-69
2023/05/22 01:15:04;;;;;;;3.03;2.50;;;20.90;57.20;;;;;;5065622;28;45261;-70
2023/05/22 01:17:33;;;;;;;3.10;2.80;;;20.80;57.10;;;;;;5065691;28;45411;-69
2023/05/22 01:20:11;;;;;;;3.25;2.95;;;20.80;57.20;;;;;;5065899;28;45422;-70
2023/05/22 01:23:15;;;;;;;2.78;2.58;;;20.80;57.20;;;;;;5065523;28;47453;-70
2023/05/22 01:26:05;;;;;;;3.28;2.97;;;20.80;57.20;;;;;;5052552;28;45592;-69
2023/05/22 01:28:40;;;;;;;3.03;2.72;;;20.80;57.20;;;;;;5065623;28;45315;-70
2023/05/22 01:31:10;;;;;;;3.20;2.90;;;20.80;57.10;;;;;;5065672;28;45357;-70
2023/05/22 01:33:39;;;;;;;4.70;2.88;;;20.80;57.20;;;;;;5065601;28;47847;-69
2023/05/22 01:36:06;;;;;;;3.30;2.88;;;20.80;57.20;;;;;;5065309;28;45305;-69
2023/05/22 01:38:33;;;;;;;3.13;2.88;;;20.80;57.20;;;;;;5065521;28;45299;-69
2023/05/22 01:41:00;;;;;;;2.90;2.70;;;20.80;57.20;;;;;;5065427;28;45495;-70
2023/05/22 01:43:27;;;;;;;2.80;2.60;;;20.70;57.20;;;;;;5065317;28;46358;-70
2023/05/22 01:45:53;;;;;;;3.45;3.15;;;20.70;57.20;;;;;;5065124;28;45427;-69
2023/05/22 01:48:22;;;;;;;4.45;3.00;;;20.70;57.20;;;;;;5065340;28;45300;-69
2023/05/22 01:50:48;;;;;;;2.85;2.58;;;20.70;57.20;;;;;;5065423;28;45521;-69
2023/05/22 01:53:18;;;;;;;3.10;2.80;;;20.70;57.20;;;;;;5065063;28;45314;-70
2023/05/22 01:55:49;;;;;;;3.20;2.90;;;20.70;57.30;;;;;;5064950;28;45286;-69
2023/05/22 01:58:20;;;;;;;2.90;2.70;;;20.70;57.20;;;;;;5065312;28;45317;-70
2023/05/22 02:00:47;;;;;;;3.10;2.78;;;20.70;57.20;;;;;;5065420;28;45273;-69
2023/05/22 02:03:15;;;;;;;3.25;2.80;;;20.70;57.30;;;;;;5064808;28;45412;-70
2023/05/22 02:05:43;;;;;;;3.08;2.78;;;20.60;57.20;;;;;;5064861;28;45352;-70
2023/05/22 02:08:10;;;;;;;2.95;2.65;;;20.60;57.20;;;;;;5065054;28;45387;-69
2023/05/22 02:10:37;;;;;;;2.85;2.65;;;20.60;57.30;;;;;;5065129;28;45301;-70
2023/05/22 02:13:03;;;;;;;3.15;2.72;;;20.60;57.30;;;;;;5064897;28;46407;-70
2023/05/22 02:15:30;;;;;;;3.78;3.35;;;20.60;57.30;;;;;;5064691;28;45323;-69
2023/05/22 02:18:00;;;;;;;3.38;2.83;;;20.60;57.30;;;;;;5065054;28;45316;-69
2023/05/22 02:20:27;;;;;;;3.75;2.97;;;20.60;57.30;;;;;;5065144;28;45397;-70
2023/05/22 02:22:55;;;;;;;2.78;2.58;;;20.60;57.30;;;;;;5064770;28;45276;-69
2023/05/22 02:25:22;;;;;;;3.33;2.92;;;20.60;57.40;;;;;;5067377;28;45403;-69
2023/05/22 02:27:49;;;;;;;3.00;2.70;;;20.50;57.30;;;;;;5068385;28;45372;-69
2023/05/22 02:30:16;;;;;;;2.90;2.70;;;20.50;57.30;;;;;;5068434;28;45387;-69
2023/05/22 02:32:43;;;;;;;3.15;2.85;;;20.50;57.30;;;;;;5068044;28;46344;-69
2023/05/22 02:35:10;;;;;;;2.80;2.58;;;20.50;57.40;;;;;;5068062;28;45376;-69
2023/05/22 02:37:37;;;;;;;2.75;2.55;;;20.50;57.40;;;;;;5068079;28;45351;-69
2023/05/22 02:40:06;;;;;;;2.95;2.58;;;20.50;57.30;;;;;;5068295;28;45439;-69
2023/05/22 02:42:33;;;;;;;2.60;2.40;;;20.50;57.30;;;;;;5067851;28;46449;-70
2023/05/22 02:45:00;;;;;;;3.20;2.90;;;20.50;57.40;;;;;;5067924;28;45301;-70
2023/05/22 02:47:26;;;;;;;2.88;2.67;;;20.50;57.50;;;;;;5067932;28;45259;-70
2023/05/22 02:49:53;;;;;;;3.10;2.70;;;20.40;57.30;;;;;;5068166;28;45572;-70
2023/05/22 02:52:21;;;;;;;2.67;2.47;;;20.40;57.40;;;;;;5067793;28;46401;-69
2023/05/22 02:54:48;;;;;;;3.03;2.72;;;20.40;57.40;;;;;;5067856;28;45341;-69
2023/05/22 02:57:16;;;;;;;3.15;2.83;;;20.40;57.40;;;;;;5067915;28;45328;-70
2023/05/22 02:59:43;;;;;;;3.20;2.50;;;20.40;57.40;;;;;;5067948;28;45331;-69
2023/05/22 03:02:11;;;;;;;2.67;2.40;;;20.40;57.50;;;;;;5067279;28;45627;-70
2023/05/22 03:04:38;;;;;;;3.47;2.50;;;20.40;57.50;;;;;;5067627;28;45396;-69
2023/05/22 03:07:06;;;;;;;2.95;2.60;;;20.40;57.50;;;;;;5067663;28;45330;-70
2023/05/22 03:09:32;;;;;;;2.95;2.47;;;20.40;57.50;;;;;;5067835;28;45462;-67
2023/05/22 03:11:59;;;;;;;2.90;2.70;;;20.40;57.40;;;;;;5067389;28;46431;-66
2023/05/22 03:14:28;;;;;;;3.45;2.60;;;20.40;57.50;;;;;;5067591;28;45454;-66
2023/05/22 03:16:55;;;;;;;3.22;2.92;;;20.40;57.50;;;;;;5067489;28;45249;-66
2023/05/22 03:19:22;;;;;;;3.38;2.60;;;20.40;57.50;;;;;;5067835;28;45483;-67
2023/05/22 03:21:49;;;;;;;3.15;2.65;;;20.40;57.50;;;;;;5067336;28;45532;-67
2023/05/22 03:24:16;;;;;;;2.55;2.33;;;20.40;57.60;;;;;;5067494;28;45355;-67
2023/05/22 03:26:43;;;;;;;3.28;2.80;;;20.40;57.50;;;;;;5064703;28;45574;-67
2023/05/22 03:29:10;;;;;;;3.15;2.72;;;20.30;57.40;;;;;;5067596;28;45554;-66
2023/05/22 03:31:38;;;;;;;3.80;2.72;;;20.30;57.40;;;;;;5067074;28;46307;-67
2023/05/22 03:34:06;;;;;;;3.83;2.50;;;20.30;57.50;;;;;;5067155;28;45345;-67
2023/05/22 03:36:33;;;;;;;2.60;2.40;;;20.30;57.50;;;;;;5063744;28;45339;-66
2023/05/22 03:39:00;;;;;;;4.05;2.63;;;20.30;57.50;;;;;;5067506;28;45306;-67
2023/05/22 03:41:27;;;;;;;3.13;2.83;;;20.30;57.50;;;;;;5066962;28;45517;-67
2023/05/22 03:43:54;;;;;;;3.65;2.90;;;20.30;57.40;;;;;;5066977;28;45388;-67
2023/05/22 03:46:21;;;;;;;2.72;2.50;;;20.30;57.50;;;;;;5067103;28;45333;-66
2023/05/22 03:48:49;;;;;;;3.03;2.75;;;20.30;57.50;;;;;;5067548;28;45333;-67
2023/05/22 03:51:16;;;;;;;4.15;2.97;;;20.30;57.50;;;;;;5066685;28;46768;-66
2023/05/22 03:53:42;;;;;;;2.65;2.38;;;20.30;57.50;;;;;;5066899;28;45388;-67
2023/05/22 03:56:09;;;;;;;2.60;2.40;;;20.30;57.50;;;;;;5066789;28;45378;-67
2023/05/22 03:58:36;;;;;;;2.72;2.53;;;20.30;57.50;;;;;;5067064;28;45297;-66
2023/05/22 04:01:03;;;;;;;2.70;2.50;;;20.30;57.50;;;;;;5066427;28;45541;-67
2023/05/22 04:03:30;;;;;;;2.80;2.47;;;20.30;57.50;;;;;;5066760;28;45276;-67
2023/05/22 04:05:58;;;;;;;2.85;2.65;;;20.20;57.50;;;;;;5066661;28;45274;-67
2023/05/22 04:08:25;;;;;;;3.17;2.95;;;20.30;57.40;;;;;;5066907;28;45340;-67
2023/05/22 04:10:53;;;;;;;2.72;2.53;;;20.20;57.40;;;;;;5066502;28;45376;-67
2023/05/22 04:13:20;;;;;;;2.55;2.35;;;20.20;57.50;;;;;;5066492;28;45325;-67
2023/05/22 04:15:46;;;;;;;2.60;2.40;;;20.20;57.40;;;;;;5066545;28;45266;-67
2023/05/22 04:18:13;;;;;;;3.00;2.70;;;20.20;57.40;;;;;;5066792;28;45389;-67
2023/05/22 04:20:41;;;;;;;3.00;2.70;;;20.20;57.40;;;;;;5066426;28;46410;-67
2023/05/22 04:23:09;;;;;;;2.90;2.60;;;20.20;57.50;;;;;;5066262;28;45312;-66
2023/05/22 04:25:36;;;;;;;3.67;2.92;;;20.20;58.00;;;;;;5066315;28;45281;-66
2023/05/22 04:28:03;;;;;;;2.90;2.70;;;20.20;57.40;;;;;;5066530;28;45525;-66
2023/05/22 04:30:32;;;;;;;2.95;2.55;;;20.20;57.40;;;;;;5066328;28;47575;-67
2023/05/22 04:33:00;;;;;;;4.10;2.80;;;20.20;57.50;;;;;;5066262;28;45342;-67
2023/05/22 04:35:29;;;;;;;3.03;2.72;;;20.20;57.50;;;;;;5066380;28;45330;-67
2023/05/22 04:37:56;;;;;;;2.70;2.50;;;20.20;57.50;;;;;;5066414;28;45359;-67
2023/05/22 04:40:25;;;;;;;2.63;2.42;;;20.20;57.50;;;;;;5065955;28;46450;-67
2023/05/22 04:42:53;;;;;;;2.45;2.25;;;20.20;57.50;;;;;;5066159;28;45364;-66
2023/05/22 04:45:24;;;;;;;2.78;2.50;;;20.20;57.50;;;;;;5066090;28;45386;-67
2023/05/22 04:47:51;;;;;;;2.80;2.60;;;20.20;58.10;;;;;;5066248;28;45337;-67
2023/05/22 04:50:18;;;;;;;2.90;2.45;;;20.20;57.50;;;;;;5065715;28;46662;-66
2023/05/22 04:52:44;;;;;;;2.63;2.42;;;20.20;57.40;;;;;;5063217;28;45379;-66
2023/05/22 04:55:11;;;;;;;2.70;2.50;;;20.20;57.30;;;;;;5066148;28;45245;-67
2023/05/22 04:57:40;;;;;;;2.72;2.53;;;20.20;57.30;;;;;;5066197;28;45304;-66
2023/05/22 05:00:08;;;;;;;2.28;2.13;;;20.20;57.30;;;;;;5065729;28;47321;-66
2023/05/22 05:02:34;;;;;;;3.10;2.80;;;20.20;57.20;;;;;;5065451;28;45419;-67
2023/05/22 05:05:01;;;;;;;3.00;2.70;;;20.20;57.20;;;;;;5065951;28;45321;-67
2023/05/22 05:07:28;;;;;;;2.97;2.65;;;20.20;57.10;;;;;;5065984;28;45396;-67
2023/05/22 05:09:55;;;;;;;2.50;2.30;;;20.20;57.10;;;;;;5065479;28;46198;-67
2023/05/22 05:12:22;;;;;;;2.97;2.53;;;20.20;57.00;;;;;;5065524;28;45257;-67
2023/05/22 05:14:50;;;;;;;2.85;2.55;;;20.30;57.00;;;;;;5065818;28;45523;-67
2023/05/22 05:17:17;;;;;;;2.70;2.50;;;20.30;57.00;;;;;;5065653;28;45313;-67
2023/05/22 05:19:43;;;;;;;2.80;2.60;;;20.30;57.00;;;;;;5065399;28;46705;-67
2023/05/22 05:22:10;;;;;;;2.60;2.40;;;20.30;56.90;;;;;;5065441;28;45369;-66
2023/05/22 05:24:37;;;;;;;2.60;2.40;;;20.30;56.80;;;;;;5065579;28;45329;-67
2023/05/22 05:27:04;;;;;;;2.60;2.40;;;20.30;56.80;;;;;;5065606;28;45332;-67
2023/05/22 05:29:31;;;;;;;2.83;2.25;;;20.30;56.80;;;;;;5065288;28;45786;-67
2023/05/22 05:31:59;;;;;;;2.88;2.67;;;20.30;56.80;;;;;;5065355;28;45353;-67
2023/05/22 05:34:26;;;;;;;2.35;2.15;;;20.30;56.80;;;;;;5065376;28;45307;-66
2023/05/22 05:36:53;;;;;;;2.60;2.40;;;20.30;56.80;;;;;;5065461;28;45594;-67
2023/05/22 05:39:19;;;;;;;2.70;2.50;;;20.30;56.80;;;;;;5065172;28;46660;-67
2023/05/22 05:41:46;;;;;;;2.50;2.30;;;20.30;56.80;;;;;;5065100;28;45431;-67
2023/05/22 05:44:13;;;;;;;2.60;2.40;;;20.30;56.80;;;;;;5065570;28;45317;-66
2023/05/22 05:46:40;;;;;;;2.28;2.10;;;20.30;56.80;;;;;;5065437;28;45174;-67
2023/05/22 05:49:09;;;;;;;2.60;2.40;;;20.30;56.80;;;;;;5065105;28;46528;-67
2023/05/22 05:51:36;;;;;;;2.65;2.45;;;20.30;56.70;;;;;;5065011;28;45309;-67
2023/05/22 05:54:03;;;;;;;3.40;2.30;;;20.40;56.70;;;;;;5065242;28;45403;-66
2023/05/22 05:56:30;;;;;;;3.00;2.35;;;20.40;56.60;;;;;;5065312;28;45400;-67
2023/05/22 05:58:57;;;;;;;3.47;2.70;;;20.40;56.60;;;;;;5065592;28;45304;-67
2023/05/22 06:01:25;;;;;;;2.40;2.20;;;20.40;56.60;;;;;;5068493;28;45317;-67
2023/05/22 06:03:52;;;;;;;2.90;2.58;;;20.40;56.50;;;;;;5068657;28;45378;-67
2023/05/22 06:06:24;;;;;;;2.28;2.08;;;20.50;56.40;;;;;;5068767;28;45398;-67
2023/05/22 06:08:51;;;;;;;2.85;2.45;;;20.50;57.00;;;;;;5068386;28;45407;-67
2023/05/22 06:11:18;;;;;;;2.42;2.22;;;20.50;56.40;;;;;;5068462;28;45324;-67
2023/05/22 06:13:45;;;;;;;2.67;2.47;;;20.50;56.30;;;;;;5068543;28;45280;-67
2023/05/22 06:16:12;;;;;;;2.63;2.20;;;20.60;56.30;;;;;;5068628;28;45306;-67
2023/05/22 06:18:39;;;;;;;2.50;2.30;;;20.60;56.20;;;;;;5068334;28;45967;-66
2023/05/22 06:21:06;;;;;;;2.15;1.98;;;20.60;56.10;;;;;;5068605;28;45420;-67
2023/05/22 06:23:35;;;;;;;2.70;2.50;;;20.60;56.10;;;;;;5068448;28;45229;-68
2023/05/22 06:26:02;;;;;;;2.63;2.42;;;20.60;56.10;;;;;;5068664;28;45446;-67
2023/05/22 06:28:28;;;;;;;2.63;2.42;;;20.70;56.00;;;;;;5068180;28;45522;-67
2023/05/22 06:30:55;;;;;;;2.78;2.58;;;20.70;56.00;;;;;;5068350;28;45336;-67
2023/05/22 06:33:22;;;;;;;2.75;2.55;;;20.70;56.00;;;;;;5068352;28;45390;-67
2023/05/22 06:35:49;;;;;;;2.30;2.10;;;20.70;56.00;;;;;;5068361;28;45478;-67
2023/05/22 06:38:16;;;;;;;2.72;2.28;;;20.80;56.00;;;;;;5067913;28;46409;-67
2023/05/22 06:40:44;;;;;;;3.13;2.42;;;20.80;56.00;;;;;;5068016;28;45245;-67
2023/05/22 06:43:11;;;;;;;2.20;2.10;;;20.80;56.50;;;;;;5068288;28;45382;-67
2023/05/22 06:45:38;;;;;;;2.90;2.30;;;20.90;55.90;;;;;;5068121;28;45466;-67
2023/05/22 06:48:05;;;;;;;3.25;2.40;;;20.90;55.80;;;;;;5067739;28;46416;-67
2023/05/22 06:50:32;;;;;;;2.50;2.30;;;20.90;56.20;;;;;;5068005;28;45285;-66
2023/05/22 06:52:59;;;;;;;2.45;2.30;;;20.90;55.90;;;;;;5067927;28;45379;-66
2023/05/22 06:55:26;;;;;;;2.40;2.20;;;21.00;55.90;;;;;;5068303;28;45424;-66
2023/05/22 06:57:54;;;;;;;2.60;2.40;;;21.00;55.80;;;;;;5065155;28;45565;-66
2023/05/22 07:00:21;;;;;;;2.22;2.03;;;21.00;55.80;;;;;;5067634;28;45388;-67
2023/05/22 07:02:48;;;;;;;2.55;2.35;;;21.00;55.70;;;;;;5067603;28;45337;-66
2023/05/22 07:05:15;;;;;;;2.50;2.30;;;21.00;55.60;;;;;;5067860;28;45339;-67
2023/05/22 07:07:42;;;;;;;2.42;2.22;;;21.10;55.60;;;;;;5067662;28;46464;-67
2023/05/22 07:10:09;;;;;;;2.40;2.20;;;21.10;55.40;;;;;;5066925;28;45412;-66
2023/05/22 07:12:36;;;;;;;2.20;2.10;;;21.10;55.30;;;;;;5067079;28;45188;-66
2023/05/22 07:15:05;;;;;;;2.40;2.20;;;21.10;55.30;;;;;;5067945;28;45416;-67
2023/05/22 07:17:32;;;;;;;2.35;2.15;;;21.20;55.40;;;;;;5067253;28;46419;-67
2023/05/22 07:19:59;;;;;;;2.40;2.20;;;21.20;55.40;;;;;;5067329;28;45401;-67
2023/05/22 07:22:25;;;;;;;2.80;2.60;;;21.20;55.40;;;;;;5067961;28;45349;-67
2023/05/22 07:24:52;;;;;;;2.38;2.17;;;21.20;55.40;;;;;;5067499;28;45573;-67
2023/05/22 07:27:19;;;;;;;2.35;2.15;;;21.20;55.50;;;;;;5067329;28;47837;-66
2023/05/22 07:29:46;;;;;;;2.53;2.30;;;21.20;55.50;;;;;;5067423;28;45387;-66
2023/05/22 07:32:14;;;;;;;2.60;2.40;;;21.30;55.50;;;;;;5067337;28;45316;-67
2023/05/22 07:34:41;;;;;;;2.13;2.00;;;21.30;56.20;;;;;;5067490;28;45318;-67
2023/05/22 07:37:09;;;;;;;2.35;2.17;;;21.30;55.60;;;;;;5067016;28;45699;-67
2023/05/22 07:39:36;;;;;;;2.33;2.13;;;21.30;55.60;;;;;;5066963;28;45485;-67
2023/05/22 07:42:03;;;;;;;2.88;2.60;;;21.30;55.60;;;;;;5067045;28;45450;-67
2023/05/22 07:44:30;;;;;;;2.72;2.53;;;21.40;55.60;;;;;;5067528;28;45311;-67
2023/05/22 07:46:58;;;;;;;2.75;2.10;;;21.40;55.60;;;;;;5066731;28;46344;-67
2023/05/22 07:49:26;;;;;;;2.58;2.38;;;21.40;55.60;;;;;;5067160;28;45737;-67
2023/05/22 07:51:53;;;;;;;2.50;2.28;;;21.40;55.50;;;;;;5066959;28;45442;-67
2023/05/22 07:54:20;;;;;;;2.42;2.22;;;21.40;55.50;;;;;;5067461;28;45345;-67
2023/05/22 07:56:46;;;;;;;2.25;2.05;;;21.40;55.60;;;;;;5066528;28;45647;-67
2023/05/22 07:59:13;;;;;;;2.88;2.60;;;21.50;55.60;;;;;;5066748;28;45392;-67
2023/05/22 08:01:40;;;;;;;2.40;2.20;;;21.50;55.60;;;;;;5066543;28;45399;-67
2023/05/22 08:04:07;;;;;;;2.75;2.38;;;21.50;55.60;;;;;;5066965;28;45656;-67
2023/05/22 08:06:35;;;;;;;3.03;2.05;;;21.50;55.60;;;;;;5066517;28;45371;-67
2023/05/22 08:09:03;;;;;;;2.70;2.50;;;21.50;55.50;;;;;;5066919;28;45309;-67
2023/05/22 08:11:30;;;;;;;2.40;2.22;;;21.60;55.60;;;;;;5066532;28;45419;-67
2023/05/22 08:13:57;;;;;;;2.67;2.47;;;21.60;55.60;;;;;;5066779;28;45408;-67
2023/05/22 08:16:23;;;;;;;2.38;2.22;;;21.60;55.60;;;;;;5066399;28;46410;-68
2023/05/22 08:18:50;;;;;;;2.70;2.50;;;21.60;55.60;;;;;;5066483;28;45226;-67
2023/05/22 08:21:17;;;;;;;2.25;2.05;;;21.60;55.60;;;;;;5066508;28;45326;-67
2023/05/22 08:23:45;;;;;;;3.17;2.13;;;21.70;55.50;;;;;;5066547;28;45335;-67
2023/05/22 08:26:12;;;;;;;2.53;2.33;;;21.70;55.60;;;;;;5066292;28;45308;-67
2023/05/22 08:28:42;;;;;;;3.08;2.33;;;21.70;55.60;;;;;;5066244;28;45438;-67
2023/05/22 08:31:09;;;;;;;2.90;2.35;;;21.70;55.50;;;;;;5066573;28;45303;-67
2023/05/22 08:33:36;;;;;;;2.55;2.35;;;21.70;55.50;;;;;;5066429;28;45363;-67
2023/05/22 08:36:03;;;;;;;2.58;2.38;;;21.80;55.50;;;;;;5066073;28;46297;-67
2023/05/22 08:38:30;;;;;;;2.45;2.25;;;21.80;55.50;;;;;;5066210;28;45234;-67
2023/05/22 08:40:58;;;;;;;2.45;2.25;;;21.80;55.50;;;;;;5066459;28;45351;-67
2023/05/22 08:43:27;;;;;;;2.20;1.98;;;21.80;55.50;;;;;;5066474;28;45407;-67
2023/05/22 08:45:57;;;;;;;3.20;2.63;;;21.90;55.50;;;;;;5065964;28;46361;-67
2023/05/22 08:48:24;;;;;;;2.50;2.30;;;21.90;55.50;;;;;;5066201;28;45333;-67
2023/05/22 08:50:57;;;;;;;2.65;2.45;;;21.90;55.40;;;;;;5066205;28;45372;-67
2023/05/22 08:53:24;;;;;;;2.38;2.17;;;21.90;55.40;;;;;;5066137;28;45250;-67
2023/05/22 08:55:52;;;;;;;2.47;2.28;;;22.00;55.50;;;;;;5065871;28;45539;-67
2023/05/22 08:58:20;;;;;;;2.30;2.10;;;22.00;55.50;;;;;;5065801;28;45296;-67
2023/05/22 09:00:47;;;;;;;2.28;2.10;;;22.00;55.50;;;;;;5065937;28;45345;-66
2023/05/22 09:03:14;;;;;;;2.40;2.20;;;22.10;55.50;;;;;;5065891;28;45510;-67
2023/05/22 09:05:41;;;;;;;2.95;2.00;;;22.10;55.40;;;;;;5065218;28;46400;-67
2023/05/22 09:08:08;;;;;;;2.60;2.40;;;22.10;55.60;;;;;;5065577;28;45320;-67
2023/05/22 09:10:34;;;;;;;2.47;2.28;;;22.20;55.60;;;;;;5066233;28;45378;-67
2023/05/22 09:13:03;;;;;;;2.80;2.30;;;22.20;55.60;;;;;;5065457;28;45404;-67
2023/05/22 09:15:31;;;;;;;2.70;2.50;;;22.20;55.80;;;;;;5067959;28;47510;-67
2023/05/22 09:17:58;;;;;;;3.22;2.83;;;22.30;56.40;;;;;;5085964;27;45308;-67
2023/05/22 09:20:25;;;;;;;3.00;2.80;;;22.40;57.10;;;;;;5080204;27;45450;-67
2023/05/22 09:22:51;;;;;;;3.75;3.03;;;22.40;58.00;;;;;;5064049;28;45757;-68
2023/05/22 09:25:18;;;;;;;3.85;3.20;;;22.40;57.90;;;;;;5063841;28;47283;-68
2023/05/22 09:27:45;;;;;;;4.78;3.50;;;22.50;58.10;;;;;;5064031;28;45429;-67
2023/05/22 09:30:15;;;;;;;4.72;3.40;;;22.60;58.70;;;;;;5063903;28;45355;-67
2023/05/22 09:32:43;;;;;;;5.22;3.70;;;22.70;59.20;;;;;;5063953;28;45577;-67
2023/05/22 09:35:10;;;;;;;4.43;3.65;;;22.70;59.30;;;;;;5062963;28;47606;-68
2023/05/22 09:37:37;;;;;;;3.55;3.25;;;22.80;59.60;;;;;;5063777;28;45436;-67
2023/05/22 09:40:08;;;;;;;3.50;3.20;;;22.80;59.60;;;;;;5063785;28;45293;-68
2023/05/22 09:42:35;;;;;;;3.88;3.47;;;22.90;59.70;;;;;;5064166;28;45452;-67
2023/05/22 09:45:05;;;;;;;4.65;4.03;;;22.90;59.40;;;;;;5063650;28;45391;-67
2023/05/22 09:47:33;;;;;;;4.90;3.95;;;23.00;59.40;;;;;;5063732;28;45282;-68
2023/05/22 09:50:03;;;;;;;5.60;4.07;;;23.00;59.40;;;;;;5063910;28;45324;-68
2023/05/22 09:52:30;;;;;;;4.00;3.60;;;23.10;59.60;;;;;;5064086;28;45562;-68
2023/05/22 09:54:57;;;;;;;5.07;4.20;;;23.10;59.30;;;;;;5060951;28;45935;-68
2023/05/22 09:57:25;;;;;;;4.10;3.70;;;23.20;59.30;;;;;;5063717;28;45486;-68
2023/05/22 09:59:53;;;;;;;5.40;4.10;;;23.20;59.10;;;;;;5063819;28;45489;-68
2023/05/22 10:02:21;;;;;;;5.03;4.43;;;23.20;59.00;;;;;;5061540;28;45365;-68
2023/05/22 10:04:48;;;;;;;5.00;4.50;;;23.30;58.70;;;;;;5063587;28;45224;-68
2023/05/22 10:07:18;;;;;;;5.53;4.70;;;23.30;58.50;;;;;;5059228;28;45408;-71
2023/05/22 10:09:45;;;;;;;5.20;4.70;;;23.30;58.30;;;;;;5061795;28;45373;-69
2023/05/22 10:12:15;;;;;;;5.13;4.63;;;23.40;58.20;;;;;;5060987;28;45442;-69
2023/05/22 10:14:41;;;;;;;6.18;4.70;;;23.40;58.10;;;;;;5063177;28;46274;-67
2023/05/22 10:17:10;;;;;;;5.78;4.65;;;23.50;58.10;;;;;;5063089;28;45297;-67
2023/05/22 10:19:36;;;;;;;4.90;4.22;;;23.50;57.90;;;;;;5063462;28;45435;-68
2023/05/22 10:22:03;;;;;;;6.22;4.65;;;23.50;58.30;;;;;;5065100;28;45266;-67
2023/05/22 10:24:31;;;;;;;5.32;4.82;;;23.60;57.80;;;;;;5064319;28;46413;-67
2023/05/22 10:26:58;;;;;;;6.55;5.18;;;23.60;57.80;;;;;;5064144;28;45366;-67
2023/05/22 10:29:30;;;;;;;5.75;5.22;;;23.60;57.50;;;;;;5064696;28;45459;-69
2023/05/22 10:32:00;;;;;;;6.93;5.10;;;23.70;57.60;;;;;;5064675;28;45335;-68
2023/05/22 10:34:29;;;;;;;7.32;5.30;;;23.70;57.50;;;;;;5064579;28;46145;-70
2023/05/22 10:37:11;;;;;;;7.03;5.03;;;23.80;57.60;;;;;;5064101;28;45340;-71
2023/05/22 10:39:43;;;;;;;6.65;5.30;;;23.80;57.50;;;;;;5064322;28;45249;-71
2023/05/22 10:42:12;;;;;;;6.30;5.55;;;23.80;57.60;;;;;;5063061;28;45717;-69
2023/05/22 10:44:39;;;;;;;8.70;6.18;;;23.90;57.10;;;;;;5064399;28;45296;-71
2023/05/22 10:47:12;;;;;;;8.82;6.30;;;23.90;57.50;;;;;;5074844;28;45305;-68
2023/05/22 10:49:42;;;;;;;8.30;6.68;;;24.00;57.60;;;;;;5067280;28;45200;-71
2023/05/22 10:52:10;;;;;;;7.28;6.57;;;24.10;57.30;;;;;;5068043;28;45385;-71
2023/05/22 10:54:42;;;;;;;7.70;6.32;;;24.20;57.00;;;;;;5067379;28;45368;-69
2023/05/22 10:57:14;;;;;;;7.55;6.65;;;24.20;56.40;;;;;;5067464;28;45364;-71
2023/05/22 10:59:41;;;;;;;9.50;6.43;;;24.30;56.10;;;;;;5067468;28;45289;-69
2023/05/22 11:02:20;;;;;;;8.27;6.72;;;24.30;55.60;;;;;;5067187;28;45382;-69
2023/05/22 11:04:47;;;;;;;7.50;6.57;;;24.40;55.40;;;;;;5067448;28;46455;-68
2023/05/22 11:07:14;;;;;;;8.77;7.45;;;24.50;55.40;;;;;;5067236;28;45277;-68
2023/05/22 11:09:44;;;;;;;6.97;6.38;;;24.50;55.40;;;;;;5067470;28;45304;-68
2023/05/22 11:12:29;;;;;;;7.55;6.75;;;24.60;55.40;;;;;;5067505;28;45400;-68
2023/05/22 11:14:57;;;;;;;8.70;6.50;;;24.60;55.30;;;;;;5067196;28;45448;-68
2023/05/22 11:17:24;;;;;;;7.22;6.43;;;24.70;55.30;;;;;;5067306;28;45482;-68
2023/05/22 11:20:01;;;;;;;7.10;5.68;;;24.80;54.40;;;;;;5066984;28;45253;-69
2023/05/22 11:22:35;;;;;;;6.60;5.90;;;24.80;54.50;;;;;;5067406;28;45436;-68
2023/05/22 11:25:07;;;;;;;7.32;6.50;;;24.80;53.90;;;;;;5067050;28;46816;-68
2023/05/22 11:27:34;;;;;;;7.78;6.93;;;24.80;53.60;;;;;;5066915;28;45314;-68
2023/05/22 11:30:01;;;;;;;7.25;5.78;;;24.70;53.90;;;;;;5067117;28;45316;-68
2023/05/22 11:32:28;;;;;;;6.57;5.95;;;24.80;54.30;;;;;;5067587;28;45393;-68
2023/05/22 11:34:56;;;;;;;6.03;5.53;;;24.80;54.00;;;;;;5066599;28;45325;-69
2023/05/22 11:37:23;;;;;;;6.90;6.28;;;24.80;54.00;;;;;;5066813;28;45170;-68
2023/05/22 11:39:51;;;;;;;6.95;6.32;;;24.80;53.70;;;;;;5067034;28;45336;-68
2023/05/22 11:42:20;;;;;;;7.43;6.43;;;24.80;53.60;;;;;;5067034;28;45401;-69
2023/05/22 11:44:46;;;;;;;9.27;6.40;;;24.80;53.50;;;;;;5066629;27;46937;-69
2023/05/22 11:47:13;;;;;;;6.60;5.90;;;24.80;53.40;;;;;;5066724;28;45369;-69
2023/05/22 11:49:40;;;;;;;6.70;5.97;;;24.90;53.20;;;;;;5066840;28;45312;-69
2023/05/22 11:52:07;;;;;;;7.07;5.65;;;24.90;53.90;;;;;;5066944;28;45494;-69
2023/05/22 11:54:34;;;;;;;6.93;6.10;;;24.90;53.70;;;;;;5066696;28;45330;-69
2023/05/22 11:57:04;;;;;;;6.15;5.55;;;24.90;53.50;;;;;;5066005;28;45336;-68
2023/05/22 11:59:32;;;;;;;7.28;6.50;;;24.90;53.50;;;;;;5066814;28;45253;-69
2023/05/22 12:01:59;;;;;;;6.70;6.00;;;24.90;54.10;;;;;;5066524;28;45305;-69
2023/05/22 12:04:26;;;;;;;6.82;5.65;;;24.90;53.40;;;;;;5066342;28;45651;-70
2023/05/22 12:06:53;;;;;;;7.95;6.03;;;24.90;53.50;;;;;;5061906;28;45445;-68
2023/05/22 12:09:21;;;;;;;6.05;5.55;;;24.90;53.70;;;;;;5066537;28;45299;-69
2023/05/22 12:11:47;;;;;;;7.32;6.15;;;24.90;53.80;;;;;;5066563;28;45396;-69
2023/05/22 12:14:14;;;;;;;8.05;6.22;;;24.90;53.40;;;;;;5066212;28;46406;-69
2023/05/22 12:16:43;;;;;;;7.63;6.50;;;24.90;53.50;;;;;;5066244;28;45370;-68
2023/05/22 12:19:10;;;;;;;6.88;5.72;;;24.90;53.60;;;;;;5066725;28;45323;-69
2023/05/22 12:21:38;;;;;;;7.28;5.90;;;24.90;53.70;;;;;;5066290;28;45530;-69
2023/05/22 12:24:05;;;;;;;6.25;5.25;;;24.90;53.50;;;;;;5066037;28;45379;-69
2023/05/22 12:26:32;;;;;;;9.68;5.47;;;24.90;53.20;;;;;;5065839;28;45331;-69
2023/05/22 12:28:59;;;;;;;7.93;6.13;;;24.90;53.00;;;;;;5066335;28;45253;-70
2023/05/22 12:31:26;;;;;;;6.72;5.90;;;24.90;52.60;;;;;;5066505;28;45363;-68
2023/05/22 12:33:55;;;;;;;6.10;5.35;;;24.90;52.90;;;;;;5065631;28;46703;-69
2023/05/22 12:36:22;;;;;;;6.47;5.78;;;25.00;52.70;;;;;;5065813;28;45423;-67
2023/05/22 12:38:49;;;;;;;6.25;5.65;;;25.00;52.90;;;;;;5066186;28;45263;-67
2023/05/22 12:41:15;;;;;;;6.60;5.90;;;25.00;53.10;;;;;;5065903;28;45531;-69
2023/05/22 12:43:42;;;;;;;6.30;5.63;;;25.00;53.50;;;;;;5065714;28;46266;-69
2023/05/22 12:46:09;;;;;;;10.70;6.00;;;25.00;53.90;;;;;;5065780;28;45359;-68
2023/05/22 12:48:36;;;;;;;5.88;5.25;;;25.00;54.30;;;;;;5065957;28;45387;-70
2023/05/22 12:51:04;;;;;;;5.97;5.10;;;25.00;54.40;;;;;;5065874;28;45372;-67